createdAt,value
2018-03-16T00:00:28.353Z,12.81
2018-03-16T00:02:54.830Z,12.70
2018-03-16T00:05:21.279Z,12.64
2018-03-16T00:07:47.829Z,12.64
2018-03-16T00:10:14.288Z,12.54
2018-03-16T00:12:40.732Z,12.56
2018-03-16T00:15:07.117Z,12.54
2018-03-16T00:17:33.526Z,12.41
2018-03-16T00:19:59.946Z,12.38
2018-03-16T00:22:37.369Z,12.48
2018-03-16T00:25:03.873Z,12.48
2018-03-16T00:27:30.242Z,12.45
2018-03-16T00:29:56.918Z,12.47
2018-03-16T00:32:23.380Z,12.48
2018-03-16T00:34:49.965Z,12.58
2018-03-16T00:37:16.354Z,12.53
2018-03-16T00:39:42.754Z,12.57
2018-03-16T00:42:09.211Z,12.58
2018-03-16T00:44:35.688Z,12.58
2018-03-16T00:47:02.066Z,12.33
2018-03-16T00:49:28.452Z,12.38
2018-03-16T00:51:54.878Z,12.44
2018-03-16T00:54:21.285Z,12.20
2018-03-16T00:56:47.646Z,12.37
2018-03-16T00:59:14.078Z,12.35
2018-03-16T01:01:40.477Z,12.33
2018-03-16T01:04:07.050Z,12.25
2018-03-16T01:06:33.530Z,12.31
2018-03-16T01:08:59.921Z,12.24
2018-03-16T01:11:26.311Z,12.39
2018-03-16T01:13:52.704Z,12.32
2018-03-16T01:16:19.109Z,12.15
2018-03-16T01:18:45.486Z,12.20
2018-03-16T01:21:11.897Z,12.33
2018-03-16T01:23:38.285Z,12.28
2018-03-16T01:26:04.714Z,12.15
2018-03-16T01:28:31.106Z,12.21
2018-03-16T01:30:57.490Z,12.25
2018-03-16T01:33:23.937Z,12.24
2018-03-16T01:35:50.349Z,12.19
2018-03-16T01:38:16.784Z,12.29
2018-03-16T01:40:43.209Z,12.39
2018-03-16T01:43:09.570Z,12.39
2018-03-16T01:45:35.974Z,12.44
2018-03-16T01:48:02.405Z,12.46
2018-03-16T01:50:28.818Z,12.39
2018-03-16T01:53:02.336Z,12.38
2018-03-16T01:55:28.774Z,12.36
2018-03-16T01:57:55.186Z,12.20
2018-03-16T02:00:21.541Z,12.24
2018-03-16T02:02:47.922Z,12.23
2018-03-16T02:05:14.350Z,12.27
2018-03-16T02:07:40.690Z,12.26
2018-03-16T02:10:07.079Z,12.18
2018-03-16T02:12:33.493Z,12.30
2018-03-16T02:14:59.830Z,12.34
2018-03-16T02:17:26.267Z,12.38
2018-03-16T02:19:52.634Z,12.34
2018-03-16T02:22:19.238Z,12.33
2018-03-16T02:24:45.593Z,12.23
2018-03-16T02:27:11.987Z,12.15
2018-03-16T02:29:38.364Z,12.11
2018-03-16T02:32:04.771Z,12.10
2018-03-16T02:34:31.326Z,12.07
2018-03-16T02:36:57.703Z,12.13
2018-03-16T02:39:24.056Z,12.13
2018-03-16T02:41:50.469Z,12.24
2018-03-16T02:44:16.990Z,12.30
2018-03-16T02:46:43.411Z,12.12
2018-03-16T02:49:09.894Z,12.24
2018-03-16T02:51:36.234Z,12.26
2018-03-16T02:54:02.639Z,12.25
2018-03-16T02:56:29.007Z,12.25
2018-03-16T02:58:55.361Z,12.05
2018-03-16T03:01:21.746Z,12.06
2018-03-16T03:03:48.103Z,12.18
2018-03-16T03:06:14.457Z,12.21
2018-03-16T03:08:40.890Z,12.18
2018-03-16T03:11:07.258Z,12.17
2018-03-16T03:13:33.646Z,12.14
2018-03-16T03:16:00.060Z,12.14
2018-03-16T03:18:26.545Z,12.13
2018-03-16T03:20:52.986Z,12.14
2018-03-16T03:23:19.377Z,12.17
2018-03-16T03:25:45.879Z,11.99
2018-03-16T03:28:12.266Z,11.87
2018-03-16T03:30:38.634Z,11.96
2018-03-16T03:33:05.059Z,12.02
2018-03-16T03:35:31.468Z,12.17
2018-03-16T03:37:57.945Z,12.12
2018-03-16T03:40:24.385Z,12.12
2018-03-16T03:42:50.950Z,12.16
2018-03-16T03:45:17.302Z,12.15
2018-03-16T03:47:43.678Z,12.05
2018-03-16T03:50:10.067Z,12.10
2018-03-16T03:52:36.418Z,12.15
2018-03-16T03:55:02.840Z,12.07
2018-03-16T03:57:29.194Z,12.10
2018-03-16T03:59:55.597Z,12.13
2018-03-16T04:02:22.010Z,12.20
2018-03-16T04:04:48.373Z,12.17
2018-03-16T04:07:14.762Z,12.20
2018-03-16T04:09:41.154Z,12.22
2018-03-16T04:12:07.505Z,12.22
2018-03-16T04:14:33.857Z,12.27
2018-03-16T04:17:00.263Z,12.31
2018-03-16T04:19:26.597Z,12.28
2018-03-16T04:21:53.178Z,12.27
2018-03-16T04:24:19.590Z,12.25
2018-03-16T04:26:45.950Z,12.30
2018-03-16T04:29:12.306Z,12.30
2018-03-16T04:31:38.655Z,12.22
2018-03-16T04:34:05.002Z,12.20
2018-03-16T04:36:31.381Z,12.15
2018-03-16T04:38:57.741Z,12.14
2018-03-16T04:41:24.223Z,11.96
2018-03-16T04:43:50.586Z,11.90
2018-03-16T04:46:16.933Z,11.86
2018-03-16T04:48:43.309Z,11.91
2018-03-16T04:51:12.826Z,11.78
2018-03-16T04:53:39.173Z,11.86
2018-03-16T04:56:05.542Z,11.88
2018-03-16T04:58:31.930Z,11.99
2018-03-16T05:00:58.334Z,11.85
2018-03-16T05:03:24.790Z,11.93
2018-03-16T05:05:51.298Z,11.99
2018-03-16T05:08:17.735Z,12.00
2018-03-16T05:10:44.084Z,12.05
2018-03-16T05:13:10.502Z,12.10
2018-03-16T05:15:36.904Z,12.12
2018-03-16T05:18:03.306Z,12.13
2018-03-16T05:20:29.683Z,11.98
2018-03-16T05:22:56.150Z,11.90
2018-03-16T05:25:22.537Z,12.02
2018-03-16T05:27:48.917Z,12.06
2018-03-16T05:30:15.321Z,12.09
2018-03-16T05:32:41.702Z,12.13
2018-03-16T05:35:08.058Z,12.20
2018-03-16T05:37:34.409Z,12.25
2018-03-16T05:40:00.762Z,12.20
2018-03-16T05:42:27.109Z,12.23
2018-03-16T05:44:53.498Z,12.27
2018-03-16T05:47:19.870Z,12.19
2018-03-16T05:49:46.246Z,12.16
2018-03-16T05:52:12.657Z,12.31
2018-03-16T05:54:39.057Z,12.25
2018-03-16T05:57:05.468Z,12.16
2018-03-16T05:59:31.819Z,12.33
2018-03-16T06:01:58.182Z,12.34
2018-03-16T06:04:24.582Z,12.27
2018-03-16T06:06:50.974Z,12.40
2018-03-16T06:09:17.478Z,12.43
2018-03-16T06:11:44.009Z,12.42
2018-03-16T06:14:10.374Z,12.55
2018-03-16T06:16:36.754Z,12.58
2018-03-16T06:19:03.141Z,12.62
2018-03-16T06:21:29.513Z,12.63
2018-03-16T06:23:56.090Z,12.73
2018-03-16T06:26:22.767Z,12.85
2018-03-16T06:28:49.566Z,12.96
2018-03-16T06:31:15.985Z,13.06
2018-03-16T06:33:42.457Z,13.11
2018-03-16T06:36:09.051Z,13.20
2018-03-16T06:38:35.534Z,13.24
2018-03-16T06:41:02.026Z,13.16
2018-03-16T06:43:28.393Z,12.95
2018-03-16T06:45:54.726Z,13.05
2018-03-16T06:48:21.161Z,13.22
2018-03-16T06:50:47.718Z,13.42
2018-03-16T06:53:14.062Z,13.48
2018-03-16T06:55:40.469Z,13.60
2018-03-16T06:58:06.814Z,13.65
2018-03-16T07:00:33.425Z,13.69
2018-03-16T07:02:59.837Z,13.81
2018-03-16T07:05:26.273Z,13.85
2018-03-16T07:07:52.685Z,13.90
2018-03-16T07:10:19.058Z,14.02
2018-03-16T07:12:45.477Z,14.06
2018-03-16T07:15:24.159Z,14.20
2018-03-16T07:17:50.568Z,14.23
2018-03-16T07:20:16.977Z,14.17
2018-03-16T07:22:43.414Z,14.18
2018-03-16T07:25:09.890Z,14.24
2018-03-16T07:27:36.262Z,14.25
2018-03-16T07:30:02.735Z,14.29
2018-03-16T07:32:29.145Z,14.29
2018-03-16T07:34:55.485Z,14.31
2018-03-16T07:37:21.856Z,14.38
2018-03-16T07:39:48.326Z,14.38
2018-03-16T07:42:14.702Z,14.36
2018-03-16T07:44:41.110Z,14.41
2018-03-16T07:47:07.502Z,14.42
2018-03-16T07:49:34.005Z,14.44
2018-03-16T07:52:00.380Z,14.51
2018-03-16T07:54:26.783Z,14.52
2018-03-16T07:56:53.205Z,14.53
2018-03-16T07:59:19.550Z,14.55
2018-03-16T08:01:45.914Z,14.61
2018-03-16T08:04:12.302Z,14.55
2018-03-16T08:06:38.801Z,14.63
2018-03-16T08:09:05.487Z,14.70
2018-03-16T08:11:32.138Z,14.69
2018-03-16T08:13:58.662Z,14.68
2018-03-16T08:16:25.067Z,14.74
2018-03-16T08:18:51.522Z,14.75
2018-03-16T08:21:17.921Z,14.77
2018-03-16T08:23:44.326Z,14.89
2018-03-16T08:26:10.769Z,14.84
2018-03-16T08:28:37.149Z,14.86
2018-03-16T08:31:03.546Z,14.92
2018-03-16T08:33:29.938Z,14.83
2018-03-16T08:35:56.271Z,14.85
2018-03-16T08:38:22.755Z,14.93
2018-03-16T08:40:49.201Z,14.92
2018-03-16T08:43:15.578Z,14.90
2018-03-16T08:45:41.934Z,15.00
2018-03-16T08:48:08.401Z,14.93
2018-03-16T08:50:34.810Z,14.91
2018-03-16T08:53:01.410Z,14.88
2018-03-16T08:55:27.810Z,14.89
2018-03-16T08:57:54.175Z,14.84
2018-03-16T09:00:20.579Z,14.86
2018-03-16T09:02:47.026Z,14.86
2018-03-16T09:05:13.469Z,14.93
2018-03-16T09:07:39.838Z,14.91
2018-03-16T09:10:06.274Z,15.15
2018-03-16T09:12:32.790Z,15.20
2018-03-16T09:14:59.142Z,15.23
2018-03-16T09:17:25.575Z,15.25
2018-03-16T09:19:52.223Z,15.15
2018-03-16T09:22:18.775Z,15.24
2018-03-16T09:24:45.159Z,15.32
2018-03-16T09:27:11.609Z,15.45
2018-03-16T09:29:38.135Z,15.54
2018-03-16T09:32:04.561Z,15.45
2018-03-16T09:34:30.894Z,15.30
2018-03-16T09:36:57.358Z,15.32
2018-03-16T09:39:23.746Z,15.29
2018-03-16T09:41:50.175Z,15.04
2018-03-16T09:44:16.550Z,15.13
2018-03-16T09:46:42.976Z,15.09
2018-03-16T09:49:09.523Z,15.28
2018-03-16T09:51:35.925Z,15.29
2018-03-16T09:54:02.292Z,15.36
2018-03-16T09:56:28.706Z,15.26
2018-03-16T09:58:55.181Z,15.39
2018-03-16T10:01:21.581Z,15.45
2018-03-16T10:03:48.006Z,15.66
2018-03-16T10:06:14.438Z,15.63
2018-03-16T10:08:40.851Z,15.63
2018-03-16T10:11:07.280Z,15.94
2018-03-16T10:13:33.646Z,16.07
2018-03-16T10:16:00.022Z,15.74
2018-03-16T10:18:26.389Z,15.42
2018-03-16T10:20:52.820Z,15.56
2018-03-16T10:23:19.225Z,15.78
2018-03-16T10:25:45.618Z,15.89
2018-03-16T10:28:12.372Z,16.12
2018-03-16T10:30:38.782Z,16.10
2018-03-16T10:33:05.175Z,16.22
2018-03-16T10:35:31.708Z,16.12
2018-03-16T10:37:58.114Z,15.95
2018-03-16T10:40:24.497Z,15.98
2018-03-16T10:42:50.869Z,15.99
2018-03-16T10:45:17.311Z,16.23
2018-03-16T10:47:43.822Z,16.26
2018-03-16T10:50:10.434Z,16.18
2018-03-16T10:52:36.913Z,16.49
2018-03-16T10:55:03.402Z,16.26
2018-03-16T10:57:29.830Z,16.31
2018-03-16T10:59:56.301Z,16.60
2018-03-16T11:02:22.707Z,16.68
2018-03-16T11:04:55.162Z,16.75
2018-03-16T11:07:21.561Z,16.67
2018-03-16T11:09:48.004Z,16.71
2018-03-16T11:12:14.389Z,16.98
2018-03-16T11:14:40.770Z,16.69
2018-03-16T11:17:07.329Z,16.69
2018-03-16T11:19:33.832Z,16.49
2018-03-16T11:22:00.194Z,16.40
2018-03-16T11:24:26.587Z,16.50
2018-03-16T11:26:52.998Z,16.38
2018-03-16T11:29:19.442Z,16.17
2018-03-16T11:31:45.950Z,16.06
2018-03-16T11:34:12.358Z,16.06
2018-03-16T11:36:38.706Z,16.14
2018-03-16T11:39:05.141Z,16.40
2018-03-16T11:41:31.599Z,16.44
2018-03-16T11:43:57.991Z,16.58
2018-03-16T11:46:24.437Z,16.46
2018-03-16T11:48:50.941Z,16.63
2018-03-16T11:51:17.533Z,16.73
2018-03-16T11:53:43.992Z,16.73
2018-03-16T11:56:10.425Z,16.84
2018-03-16T11:58:36.810Z,16.62
2018-03-16T12:01:03.291Z,16.76
2018-03-16T12:03:29.709Z,16.72
2018-03-16T12:05:56.108Z,16.81
2018-03-16T12:08:22.492Z,16.69
2018-03-16T12:10:48.883Z,16.71
2018-03-16T12:13:15.298Z,16.62
2018-03-16T12:15:41.700Z,16.66
2018-03-16T12:18:08.131Z,16.57
2018-03-16T12:20:34.689Z,16.70
2018-03-16T12:23:01.089Z,16.73
2018-03-16T12:25:27.566Z,16.83
2018-03-16T12:27:54.038Z,16.65
2018-03-16T12:30:20.421Z,16.68
2018-03-16T12:32:46.861Z,16.80
2018-03-16T12:35:13.335Z,16.58
2018-03-16T12:37:39.710Z,16.49
2018-03-16T12:40:06.186Z,16.75
2018-03-16T12:42:32.639Z,16.84
2018-03-16T12:44:59.072Z,16.86
2018-03-16T12:47:25.506Z,16.67
2018-03-16T12:49:51.890Z,16.75
2018-03-16T12:52:18.278Z,17.00
2018-03-16T12:54:44.688Z,16.97
2018-03-16T12:57:11.218Z,16.82
2018-03-16T12:59:37.688Z,16.91
2018-03-16T13:02:04.166Z,16.74
2018-03-16T13:04:30.659Z,16.56
2018-03-16T13:06:57.134Z,16.54
2018-03-16T13:09:23.529Z,16.52
2018-03-16T13:11:49.998Z,16.69
2018-03-16T13:14:16.397Z,16.72
2018-03-16T13:16:42.774Z,16.80
2018-03-16T13:19:09.207Z,16.92
2018-03-16T13:21:35.617Z,17.10
2018-03-16T13:24:02.070Z,17.24
2018-03-16T13:26:28.519Z,17.32
2018-03-16T13:28:54.917Z,17.47
2018-03-16T13:31:21.339Z,17.33
2018-03-16T13:33:48.230Z,17.39
2018-03-16T13:36:14.850Z,17.28
2018-03-16T13:38:41.296Z,17.35
2018-03-16T13:41:07.756Z,17.33
2018-03-16T13:43:34.130Z,17.30
2018-03-16T13:46:00.659Z,17.07
2018-03-16T13:48:27.089Z,17.07
2018-03-16T13:50:53.466Z,16.96
2018-03-16T13:53:19.886Z,16.99
2018-03-16T13:55:46.276Z,17.05
2018-03-16T13:58:12.661Z,17.16
2018-03-16T14:00:39.125Z,17.24
2018-03-16T14:03:05.518Z,17.07
2018-03-16T14:05:31.888Z,16.76
2018-03-16T14:07:58.302Z,16.92
2018-03-16T14:10:24.798Z,16.95
2018-03-16T14:12:51.285Z,16.95
2018-03-16T14:15:17.782Z,17.01
2018-03-16T14:17:44.996Z,17.06
2018-03-16T14:20:11.366Z,16.93
2018-03-16T14:22:38.071Z,16.85
2018-03-16T14:25:04.551Z,16.85
2018-03-16T14:27:30.969Z,16.86
2018-03-16T14:29:57.465Z,16.77
2018-03-16T14:32:23.881Z,16.86
2018-03-16T14:34:50.578Z,16.81
2018-03-16T14:37:17.010Z,16.80
2018-03-16T14:39:43.350Z,16.78
2018-03-16T14:42:09.727Z,16.81
2018-03-16T14:44:36.208Z,16.75
2018-03-16T14:47:02.634Z,16.88
2018-03-16T14:49:29.143Z,16.82
2018-03-16T14:51:55.563Z,16.73
2018-03-16T14:54:21.969Z,16.79
2018-03-16T14:56:48.404Z,16.91
2018-03-16T14:59:14.830Z,16.90
2018-03-16T15:01:41.278Z,16.93
2018-03-16T15:04:07.869Z,16.88
2018-03-16T15:06:34.362Z,16.64
2018-03-16T15:09:00.815Z,16.73
2018-03-16T15:11:27.182Z,16.80
2018-03-16T15:13:53.644Z,16.73
2018-03-16T15:16:19.986Z,16.78
2018-03-16T15:18:46.353Z,16.69
2018-03-16T15:21:12.722Z,16.76
2018-03-16T15:23:39.135Z,16.73
2018-03-16T15:26:05.574Z,16.78
2018-03-16T15:28:32.281Z,16.59
2018-03-16T15:30:58.710Z,16.71
2018-03-16T15:33:25.259Z,16.69
2018-03-16T15:35:51.890Z,16.83
2018-03-16T15:38:18.325Z,16.84
2018-03-16T15:40:44.703Z,16.81
2018-03-16T15:43:11.189Z,16.81
2018-03-16T15:45:37.611Z,16.85
2018-03-16T15:48:04.084Z,16.95
2018-03-16T15:50:30.522Z,16.79
2018-03-16T15:52:58.243Z,16.84
2018-03-16T15:55:24.687Z,16.94
2018-03-16T15:57:51.054Z,16.66
2018-03-16T16:00:17.437Z,16.78
2018-03-16T16:02:43.795Z,16.67
2018-03-16T16:05:10.138Z,16.64
2018-03-16T16:07:36.574Z,16.55
2018-03-16T16:10:03.043Z,16.61
2018-03-16T16:12:29.439Z,16.58
2018-03-16T16:14:55.847Z,16.54
2018-03-16T16:17:22.210Z,16.53
2018-03-16T16:19:48.634Z,16.41
2018-03-16T16:22:15.158Z,16.53
2018-03-16T16:24:41.619Z,16.45
2018-03-16T16:27:08.079Z,16.52
2018-03-16T16:29:34.526Z,16.45
2018-03-16T16:32:00.937Z,16.41
2018-03-16T16:34:27.323Z,16.32
2018-03-16T16:36:53.781Z,16.42
2018-03-16T16:39:20.234Z,16.40
2018-03-16T16:41:46.793Z,16.30
2018-03-16T16:44:13.315Z,16.22
2018-03-16T16:46:39.771Z,16.33
2018-03-16T16:49:06.211Z,16.08
2018-03-16T16:51:32.698Z,16.26
2018-03-16T16:53:59.097Z,16.07
2018-03-16T16:56:25.458Z,16.14
2018-03-16T16:58:51.995Z,16.23
2018-03-16T17:01:18.329Z,16.16
2018-03-16T17:03:44.729Z,16.19
2018-03-16T17:06:11.185Z,15.84
2018-03-16T17:08:37.741Z,15.92
2018-03-16T17:11:04.216Z,15.94
2018-03-16T17:13:30.570Z,15.98
2018-03-16T17:15:56.970Z,16.00
2018-03-16T17:18:23.366Z,15.74
2018-03-16T17:20:49.734Z,15.72
2018-03-16T17:23:16.169Z,15.91
2018-03-16T17:25:42.672Z,15.84
2018-03-16T17:28:09.067Z,15.61
2018-03-16T17:30:35.522Z,15.69
2018-03-16T17:33:01.934Z,15.82
2018-03-16T17:35:28.338Z,15.74
2018-03-16T17:37:54.774Z,15.63
2018-03-16T17:40:21.174Z,15.77
2018-03-16T17:42:47.562Z,15.72
2018-03-16T17:45:14.090Z,15.74
2018-03-16T17:47:40.453Z,15.72
2018-03-16T17:50:06.885Z,15.81
2018-03-16T17:52:33.273Z,15.75
2018-03-16T17:54:59.676Z,15.62
2018-03-16T17:57:26.112Z,15.78
2018-03-16T17:59:53.074Z,15.70
2018-03-16T18:02:19.531Z,15.36
2018-03-16T18:04:46.907Z,15.41
2018-03-16T18:07:13.945Z,15.44
2018-03-16T18:09:40.389Z,15.40
2018-03-16T18:12:06.786Z,15.37
2018-03-16T18:14:33.211Z,15.35
2018-03-16T18:16:59.693Z,15.48
2018-03-16T18:19:26.429Z,15.63
2018-03-16T18:21:52.818Z,15.63
2018-03-16T18:24:19.254Z,15.38
2018-03-16T18:26:45.665Z,15.57
2018-03-16T18:29:12.370Z,15.51
2018-03-16T18:31:38.935Z,15.61
2018-03-16T18:34:05.333Z,15.59
2018-03-16T18:36:31.762Z,15.60
2018-03-16T18:38:58.166Z,15.46
2018-03-16T18:41:24.572Z,15.31
2018-03-16T18:43:50.986Z,15.23
2018-03-16T18:46:17.358Z,15.38
2018-03-16T18:48:43.897Z,15.54
2018-03-16T18:51:10.286Z,15.55
2018-03-16T18:53:36.711Z,15.56
2018-03-16T18:56:03.129Z,15.46
2018-03-16T18:58:29.582Z,15.41
2018-03-16T19:00:56.026Z,15.45
2018-03-16T19:03:22.471Z,15.41
2018-03-16T19:05:48.915Z,15.43
2018-03-16T19:08:15.294Z,15.50
2018-03-16T19:10:41.675Z,15.40
2018-03-16T19:13:08.149Z,15.36
2018-03-16T19:15:34.594Z,15.36
2018-03-16T19:18:00.986Z,15.37
2018-03-16T19:20:27.559Z,15.38
2018-03-16T19:22:54.000Z,15.39
2018-03-16T19:25:20.628Z,15.41
2018-03-16T19:27:47.260Z,15.35
2018-03-16T19:30:13.673Z,15.17
2018-03-16T19:32:40.099Z,15.31
2018-03-16T19:35:06.550Z,15.39
2018-03-16T19:50:38.674Z,15.44
2018-03-16T19:53:05.009Z,15.33
2018-03-16T19:55:31.421Z,15.30
2018-03-16T19:57:57.890Z,15.26
2018-03-16T20:00:24.329Z,15.20
2018-03-16T20:02:50.792Z,15.29
2018-03-16T20:05:17.162Z,15.19
2018-03-16T20:07:43.628Z,15.20
2018-03-16T20:10:10.046Z,15.19
2018-03-16T20:12:36.489Z,15.14
2018-03-16T20:15:02.926Z,15.18
2018-03-16T20:17:29.386Z,15.13
2018-03-16T20:19:55.790Z,15.15
2018-03-16T20:22:29.176Z,15.18
2018-03-16T20:24:55.857Z,15.15
2018-03-16T20:27:22.247Z,15.11
2018-03-16T20:29:48.697Z,15.09
2018-03-16T20:32:15.125Z,15.15
2018-03-16T20:34:41.525Z,15.09
2018-03-16T20:37:07.994Z,15.03
2018-03-16T20:39:34.437Z,14.95
2018-03-16T20:42:00.841Z,14.92
2018-03-16T20:44:28.189Z,14.97
2018-03-16T20:46:54.719Z,14.96
2018-03-16T20:49:21.162Z,15.08
2018-03-16T20:51:47.597Z,15.11
2018-03-16T20:54:14.003Z,15.02
2018-03-16T20:56:40.386Z,14.98
2018-03-16T20:59:06.818Z,14.89
2018-03-16T21:01:33.229Z,14.89
2018-03-16T21:03:59.645Z,14.88
2018-03-16T21:06:25.991Z,14.84
2018-03-16T21:08:52.391Z,14.78
2018-03-16T21:11:18.802Z,14.82
2018-03-16T21:13:45.301Z,14.84
2018-03-16T21:16:11.722Z,14.85
2018-03-16T21:18:38.410Z,14.81
2018-03-16T21:21:04.810Z,14.79
2018-03-16T21:23:31.276Z,14.81
2018-03-16T21:25:57.666Z,14.79
2018-03-16T21:28:24.083Z,14.75
2018-03-16T21:30:50.546Z,14.72
2018-03-16T21:33:16.973Z,14.69
2018-03-16T21:35:43.554Z,14.72
2018-03-16T21:38:09.955Z,14.72
2018-03-16T21:40:36.315Z,14.70
2018-03-16T21:43:02.806Z,14.71
2018-03-16T21:45:29.222Z,14.70
2018-03-16T21:47:55.708Z,14.66
2018-03-16T21:50:22.542Z,14.65
2018-03-16T21:52:48.929Z,14.60
2018-03-16T21:55:15.284Z,14.61
2018-03-16T21:57:41.774Z,14.53
2018-03-16T22:00:09.942Z,14.53
2018-03-16T22:02:38.118Z,14.50
2018-03-16T22:05:05.825Z,14.44
2018-03-16T22:07:32.182Z,14.33
2018-03-16T22:09:59.194Z,14.34
2018-03-16T22:12:25.591Z,14.34
2018-03-16T22:14:51.954Z,14.34
2018-03-16T22:17:18.378Z,14.35
2018-03-16T22:19:44.806Z,14.35
2018-03-16T22:22:11.318Z,14.37
2018-03-16T22:24:37.675Z,14.33
2018-03-16T22:27:04.034Z,14.36
2018-03-16T22:29:30.437Z,14.30
2018-03-16T22:31:56.796Z,14.36
2018-03-16T22:34:23.253Z,14.36
2018-03-16T22:36:49.841Z,14.36
2018-03-16T22:39:16.222Z,14.26
2018-03-16T22:41:42.630Z,14.35
2018-03-16T22:44:09.048Z,14.31
2018-03-16T22:46:35.443Z,14.27
2018-03-16T22:49:01.894Z,14.18
2018-03-16T22:51:28.266Z,14.19
2018-03-16T22:53:54.686Z,14.20
2018-03-16T22:56:21.238Z,14.08
2018-03-16T22:58:47.859Z,14.09
2018-03-16T23:01:14.225Z,13.97
2018-03-16T23:03:40.678Z,13.90
2018-03-16T23:06:07.045Z,13.96
2018-03-16T23:08:33.422Z,13.89
2018-03-16T23:10:59.859Z,13.83
2018-03-16T23:13:26.223Z,13.68
2018-03-16T23:15:52.721Z,13.59
2018-03-16T23:18:19.214Z,13.51
2018-03-16T23:20:45.586Z,13.54
2018-03-16T23:23:11.933Z,13.44
2018-03-16T23:25:38.409Z,13.53
2018-03-16T23:28:04.989Z,13.60
2018-03-16T23:30:31.418Z,13.63
2018-03-16T23:32:57.801Z,13.65
2018-03-16T23:35:24.217Z,13.66
2018-03-16T23:37:50.682Z,13.66
2018-03-16T23:40:17.098Z,13.63
2018-03-16T23:42:43.567Z,13.45
2018-03-16T23:45:10.045Z,13.33
2018-03-16T23:47:36.454Z,13.43
2018-03-16T23:50:02.924Z,13.39
2018-03-16T23:52:29.318Z,13.43
2018-03-16T23:54:55.733Z,13.40
2018-03-16T23:57:22.154Z,13.39
2018-03-16T23:59:48.547Z,13.38
